Terminal Aerodrome Forecast
Issued by NWS Billings, MT

Home | Current Version | Previous Version | Graphics & Text | Print | Product List | Glossary On
Versions: 1 2 3 4 5 6 7 8 9 10 11 12 13
000
FTUS45 KBYZ 151138
TAFMLS
TAF
KMLS 151138Z 1512/1612 18005KT P6SM SKC
     FM152000 27015G30KT P6SM FEW100 BKN200
     FM160200 31013KT P6SM BKN100=

USA.gov is the U.S. government's official web portal to all federal, state and local government web resources and services.